Time;durP1;ratioP1;P1;durP2;ratioP2;P2;SDS_P1;SDS_P2;PMS_P1;PMS_P2;Temp;Humidity;BMP_temperature;BMP_pressure;BME280_temperature;BME280_humidity;BME280_pressure;Samples;Min_cycle;Max_cycle;Signal;HPM_P1;HPM_P2
2022/06/29 00:02:36;;;;;;;9.60;8.65;;;15.60;99.90;;;;;;5085408;28;20128;-83
2022/06/29 00:05:24;;;;;;;9.65;8.60;;;15.50;99.90;;;;;;5089063;28;20044;-84
2022/06/29 00:08:14;;;;;;;9.88;8.35;;;15.60;99.90;;;;;;5075692;28;20076;-86
2022/06/29 00:11:02;;;;;;;9.18;8.27;;;15.50;99.90;;;;;;5081616;28;20102;-84
2022/06/29 00:13:51;;;;;;;11.57;9.43;;;15.50;99.90;;;;;;5088952;28;20444;-83
2022/06/29 00:16:38;;;;;;;10.48;9.45;;;15.40;99.90;;;;;;5089298;28;20126;-83
2022/06/29 00:19:25;;;;;;;10.98;9.88;;;15.30;99.90;;;;;;5085046;28;20048;-84
2022/06/29 00:22:15;;;;;;;10.60;9.55;;;15.30;99.90;;;;;;5080037;28;20048;-84
2022/06/29 00:25:03;;;;;;;11.82;8.88;;;15.20;99.90;;;;;;5077020;28;20522;-84
2022/06/29 00:27:55;;;;;;;11.23;10.13;;;15.10;99.90;;;;;;5081305;28;20062;-84
2022/06/29 00:30:42;;;;;;;12.23;10.60;;;15.10;99.90;;;;;;5091033;28;20499;-84
2022/06/29 00:33:31;;;;;;;12.52;11.25;;;15.10;99.90;;;;;;5075848;28;20051;-84
2022/06/29 00:36:19;;;;;;;16.33;11.18;;;15.10;99.90;;;;;;5070471;28;20139;-83
2022/06/29 00:39:08;;;;;;;11.88;10.68;;;15.10;99.90;;;;;;5095052;28;20050;-84
2022/06/29 00:41:58;;;;;;;13.43;11.40;;;15.10;99.90;;;;;;5079177;28;20048;-83
2022/06/29 00:44:48;;;;;;;12.43;11.00;;;15.10;99.90;;;;;;5092171;28;20551;-83
2022/06/29 00:47:35;;;;;;;12.40;11.10;;;15.10;99.90;;;;;;5090376;28;20457;-85
2022/06/29 00:50:28;;;;;;;14.27;11.27;;;15.00;99.90;;;;;;5071318;28;20465;-84
2022/06/29 00:53:16;;;;;;;;;;;14.90;99.90;;;;;;5077578;28;20109;-84
2022/06/29 00:56:10;;;;;;;13.57;10.57;;;14.80;99.90;;;;;;5091168;28;19920;-85
2022/06/29 00:59:02;;;;;;;12.57;11.27;;;14.90;99.90;;;;;;5090123;28;20123;-85
2022/06/29 01:01:49;;;;;;;15.33;10.63;;;14.90;99.90;;;;;;5082818;28;20047;-85
2022/06/29 01:04:40;;;;;;;11.88;10.68;;;15.00;99.90;;;;;;5078384;28;20048;-84
2022/06/29 01:07:30;;;;;;;14.88;11.10;;;15.00;99.90;;;;;;5073182;28;20123;-85
2022/06/29 01:10:20;;;;;;;11.55;10.40;;;15.00;99.90;;;;;;5089981;28;20157;-85
2022/06/29 01:13:09;;;;;;;11.57;10.40;;;15.00;99.90;;;;;;5074827;28;20040;-85
2022/06/29 01:15:59;;;;;;;15.73;11.43;;;15.00;99.90;;;;;;5078394;28;20036;-84
2022/06/29 01:18:48;;;;;;;13.80;10.88;;;15.00;99.90;;;;;;5088046;28;20051;-84
2022/06/29 01:21:42;;;;;;;12.23;10.95;;;14.90;99.90;;;;;;5089912;28;20116;-85
2022/06/29 01:24:32;;;;;;;13.02;11.13;;;14.90;99.90;;;;;;5089875;28;20137;-84
2022/06/29 01:27:20;;;;;;;12.13;10.70;;;14.80;99.90;;;;;;5089325;28;20044;-84
2022/06/29 01:30:12;;;;;;;16.48;11.80;;;14.80;99.90;;;;;;5090645;28;20032;-84
2022/06/29 01:33:04;;;;;;;12.75;11.45;;;14.70;99.90;;;;;;5085497;28;20113;-85
2022/06/29 01:35:54;;;;;;;12.17;11.07;;;14.70;99.90;;;;;;5076515;28;20383;-85
2022/06/29 01:38:44;;;;;;;12.57;11.38;;;14.80;99.90;;;;;;5072131;28;20045;-84
2022/06/29 01:41:33;;;;;;;13.30;11.65;;;14.80;99.90;;;;;;5064759;28;20036;-84
2022/06/29 01:44:26;;;;;;;14.95;11.95;;;14.90;99.90;;;;;;5068151;28;20403;-85
2022/06/29 01:47:15;;;;;;;15.00;12.50;;;14.90;99.90;;;;;;5088456;28;20425;-84
2022/06/29 01:50:03;;;;;;;12.68;10.23;;;14.90;99.90;;;;;;5080340;28;21650;-84
2022/06/29 01:52:50;;;;;;;11.95;10.80;;;14.80;99.90;;;;;;5082141;28;20141;-85
2022/06/29 01:55:42;;;;;;;14.23;11.07;;;14.80;99.90;;;;;;5101671;28;20051;-84
2022/06/29 01:58:29;;;;;;;14.32;12.27;;;14.80;99.90;;;;;;5088914;28;20136;-85
2022/06/29 02:01:19;;;;;;;14.27;11.90;;;14.80;99.90;;;;;;5080642;28;20066;-85
2022/06/29 02:04:08;;;;;;;14.48;13.02;;;14.80;99.90;;;;;;5080474;28;20040;-84
2022/06/29 02:07:00;;;;;;;15.73;12.30;;;14.70;99.90;;;;;;5072304;28;20044;-85
2022/06/29 02:09:48;;;;;;;16.58;12.10;;;14.80;99.90;;;;;;5098351;28;20095;-85
2022/06/29 02:12:35;;;;;;;14.23;12.80;;;14.70;99.90;;;;;;5094606;28;20040;-85
2022/06/29 02:15:25;;;;;;;15.52;12.63;;;14.70;99.90;;;;;;5094108;28;20044;-85
2022/06/29 02:18:17;;;;;;;13.75;12.35;;;14.70;99.90;;;;;;5098017;28;20127;-85
2022/06/29 02:21:04;;;;;;;15.25;12.00;;;14.70;99.90;;;;;;5085424;28;20040;-85
2022/06/29 02:23:56;;;;;;;14.98;13.43;;;14.60;99.90;;;;;;5080364;28;20380;-85
2022/06/29 02:26:45;;;;;;;16.00;13.40;;;14.60;99.90;;;;;;5077717;28;20044;-85
2022/06/29 02:29:32;;;;;;;13.52;12.32;;;14.60;99.90;;;;;;5107168;28;20066;-85
2022/06/29 02:35:25;;;;;;;16.35;14.48;;;14.50;99.90;;;;;;5092873;28;20405;-85
2022/06/29 02:38:15;;;;;;;15.30;13.48;;;14.60;99.90;;;;;;5075831;28;20040;-84
2022/06/29 02:41:05;;;;;;;15.43;13.55;;;14.70;99.90;;;;;;5084541;28;20055;-84
2022/06/29 02:43:52;;;;;;;13.98;12.57;;;14.70;99.90;;;;;;5088295;28;20621;-85
2022/06/29 02:46:39;;;;;;;14.02;12.48;;;14.80;99.90;;;;;;5093709;28;20098;-84
2022/06/29 02:49:26;;;;;;;15.43;13.82;;;14.90;99.90;;;;;;5094632;28;20063;-84
2022/06/29 02:52:13;;;;;;;13.27;11.98;;;14.80;99.90;;;;;;5097057;28;20433;-84
2022/06/29 02:55:01;;;;;;;12.65;10.88;;;14.80;99.90;;;;;;5082054;28;20438;-84
2022/06/29 02:57:48;;;;;;;15.00;12.15;;;14.80;99.90;;;;;;5073948;28;20048;-85
2022/06/29 03:00:35;;;;;;;14.95;12.55;;;14.70;99.90;;;;;;5089013;28;20135;-84
2022/06/29 03:03:22;;;;;;;14.10;11.77;;;14.70;99.90;;;;;;5077952;28;20413;-84
2022/06/29 03:06:12;;;;;;;15.65;12.57;;;14.70;99.90;;;;;;5083265;28;20368;-85
2022/06/29 03:08:59;;;;;;;13.45;12.05;;;14.60;99.90;;;;;;5091228;28;20475;-84
2022/06/29 03:11:49;;;;;;;14.23;11.82;;;14.60;99.90;;;;;;5082084;28;20484;-84
2022/06/29 03:14:38;;;;;;;13.65;12.07;;;14.50;99.90;;;;;;5097299;28;20110;-84
2022/06/29 03:17:25;;;;;;;14.73;12.20;;;14.50;99.90;;;;;;5068868;28;20048;-85
2022/06/29 03:20:15;;;;;;;13.63;12.10;;;14.50;99.90;;;;;;5092906;28;20063;-84
2022/06/29 03:23:04;;;;;;;18.58;12.38;;;14.40;99.90;;;;;;5081285;28;20056;-84
2022/06/29 03:25:56;;;;;;;18.85;12.60;;;14.40;99.90;;;;;;5091771;28;20147;-84
2022/06/29 03:28:52;;;;;;;12.70;11.43;;;14.40;99.90;;;;;;5079341;28;20055;-84
2022/06/29 03:31:39;;;;;;;13.88;12.52;;;14.30;99.90;;;;;;5071818;28;20393;-85
2022/06/29 03:34:27;;;;;;;15.43;13.68;;;14.30;99.90;;;;;;5077132;28;20040;-85
2022/06/29 03:37:14;;;;;;;15.15;13.55;;;14.20;99.90;;;;;;5079276;28;20037;-85
2022/06/29 03:40:09;;;;;;;16.85;13.52;;;14.20;99.90;;;;;;5093848;28;20485;-86
2022/06/29 03:42:56;;;;;;;17.25;15.30;;;14.10;99.90;;;;;;5080890;28;20172;-85
2022/06/29 03:45:44;;;;;;;20.23;16.23;;;14.10;99.90;;;;;;5099206;28;20124;-86
2022/06/29 03:48:33;;;;;;;17.90;16.02;;;14.10;99.90;;;;;;5083230;28;20048;-85
2022/06/29 03:51:22;;;;;;;19.38;17.38;;;14.20;99.90;;;;;;5073023;28;20044;-84
2022/06/29 03:54:12;;;;;;;19.45;17.38;;;14.20;99.90;;;;;;5088624;28;20055;-83
2022/06/29 03:57:01;;;;;;;20.55;17.58;;;14.20;99.90;;;;;;5089419;28;20465;-86
2022/06/29 03:59:48;;;;;;;20.55;16.73;;;14.30;99.90;;;;;;5076251;28;20044;-85
2022/06/29 04:06:44;;;;;;;18.95;16.95;;;14.40;99.90;;;;;;5089399;28;20028;-85
2022/06/29 04:09:33;;;;;;;23.33;16.77;;;14.40;99.90;;;;;;5079780;28;20691;-86
2022/06/29 04:12:23;;;;;;;16.48;14.68;;;14.50;99.90;;;;;;5085926;28;20059;-90
2022/06/29 04:15:11;;;;;;;15.65;14.13;;;14.50;99.90;;;;;;5092822;28;20051;-90
2022/06/29 04:22:18;;;;;;;14.90;12.75;;;14.50;99.90;;;;;;5033888;28;20085;-90
2022/06/29 04:25:05;;;;;;;17.27;13.48;;;14.60;99.90;;;;;;5074648;28;20036;-90
2022/06/29 04:27:53;;;;;;;14.73;12.93;;;14.70;99.90;;;;;;5073368;28;20127;-90
2022/06/29 04:31:30;;;;;;;21.90;12.40;;;14.70;99.90;;;;;;5076927;28;20136;-90
2022/06/29 04:41:09;;;;;;;14.50;11.40;;;14.90;99.90;;;;;;5008648;28;20049;-89
2022/06/29 04:44:09;;;;;;;12.30;10.52;;;15.00;99.90;;;;;;4994515;28;20038;-89
2022/06/29 04:46:56;;;;;;;12.50;10.40;;;15.10;99.90;;;;;;5012136;28;20053;-88
2022/06/29 04:49:43;;;;;;;13.50;10.45;;;15.20;99.90;;;;;;5021036;28;20042;-88
2022/06/29 04:52:37;;;;;;;11.98;9.88;;;15.30;99.90;;;;;;5015870;28;20084;-88
2022/06/29 04:55:28;;;;;;;13.88;10.10;;;15.40;99.90;;;;;;5012257;28;20042;-91
2022/06/29 04:58:17;;;;;;;11.35;9.98;;;15.50;99.90;;;;;;4998660;28;20076;-87
2022/06/29 05:01:05;;;;;;;13.13;10.10;;;15.50;99.90;;;;;;5013667;28;20046;-88
2022/06/29 05:03:53;;;;;;;11.45;9.60;;;15.60;99.90;;;;;;5004430;28;20490;-87
2022/06/29 05:06:40;;;;;;;10.35;9.32;;;15.70;99.90;;;;;;5010489;28;20065;-88
2022/06/29 05:09:29;;;;;;;9.52;8.52;;;15.80;99.90;;;;;;4999305;28;20109;-87
2022/06/29 05:12:21;;;;;;;9.88;8.88;;;15.90;99.90;;;;;;5009715;28;20410;-88
2022/06/29 05:15:11;;;;;;;12.45;8.10;;;16.00;99.90;;;;;;5010674;28;20060;-85
2022/06/29 05:17:58;;;;;;;8.75;7.88;;;16.10;99.90;;;;;;4995553;28;20356;-85
2022/06/29 05:20:45;;;;;;;11.70;7.97;;;16.20;99.90;;;;;;4995713;28;20093;-84
2022/06/29 05:23:33;;;;;;;9.70;8.02;;;16.30;99.90;;;;;;5009339;28;20053;-86
2022/06/29 05:26:20;;;;;;;8.70;7.72;;;16.40;99.90;;;;;;5006960;28;20089;-85
2022/06/29 05:29:08;;;;;;;8.68;7.53;;;16.40;99.90;;;;;;5011171;28;20057;-87
2022/06/29 05:31:57;;;;;;;9.85;7.72;;;16.50;99.90;;;;;;5018878;28;20057;-85
2022/06/29 05:34:44;;;;;;;8.55;7.72;;;16.50;99.90;;;;;;5011130;28;20053;-85
2022/06/29 05:37:34;;;;;;;9.00;7.28;;;16.70;99.90;;;;;;5009650;28;20048;-85
2022/06/29 05:40:24;;;;;;;8.25;7.32;;;16.80;99.90;;;;;;5019015;28;20042;-87
2022/06/29 05:43:11;;;;;;;7.15;6.45;;;16.90;99.90;;;;;;4995545;28;20079;-85
2022/06/29 05:46:01;;;;;;;8.35;6.72;;;17.00;99.90;;;;;;5020094;28;20105;-84
2022/06/29 05:48:51;;;;;;;7.93;7.13;;;17.10;99.90;;;;;;5014681;28;20463;-85
2022/06/29 05:51:40;;;;;;;8.18;6.68;;;17.10;99.90;;;;;;5016592;28;20050;-85
2022/06/29 05:54:28;;;;;;;7.50;6.82;;;17.20;99.90;;;;;;5014267;28;20049;-86
2022/06/29 05:57:19;;;;;;;11.20;7.05;;;17.30;99.90;;;;;;5020619;28;20046;-85
2022/06/29 06:00:08;;;;;;;6.95;6.15;;;17.50;99.90;;;;;;5018002;28;20049;-84
2022/06/29 06:02:55;;;;;;;7.22;6.20;;;17.50;99.90;;;;;;5016146;28;20075;-86
2022/06/29 06:05:45;;;;;;;9.57;6.00;;;17.60;99.90;;;;;;5018260;28;20125;-85
2022/06/29 06:08:32;;;;;;;6.78;5.80;;;17.80;99.90;;;;;;5005889;28;20073;-85
2022/06/29 06:11:19;;;;;;;6.32;5.75;;;18.00;99.90;;;;;;5018842;28;20131;-84
2022/06/29 06:14:07;;;;;;;6.30;5.38;;;18.10;99.90;;;;;;5018394;28;20046;-85
2022/06/29 06:16:54;;;;;;;8.93;5.32;;;18.20;99.90;;;;;;5017774;28;20050;-85
2022/06/29 06:19:43;;;;;;;8.57;5.47;;;18.30;99.90;;;;;;5018307;28;20161;-84
2022/06/29 06:22:33;;;;;;;8.48;5.72;;;18.40;99.90;;;;;;5002916;28;20056;-84
2022/06/29 06:25:22;;;;;;;6.18;5.65;;;18.60;99.90;;;;;;5017134;28;20049;-84
2022/06/29 06:28:12;;;;;;;6.72;5.65;;;18.70;99.90;;;;;;5015742;28;20054;-84
2022/06/29 06:30:59;;;;;;;9.85;5.50;;;19.00;99.90;;;;;;5021289;28;20045;-84
2022/06/29 06:33:48;;;;;;;7.80;5.00;;;19.10;99.90;;;;;;5017731;28;20049;-84
2022/06/29 06:36:35;;;;;;;5.20;4.70;;;19.20;99.90;;;;;;5002452;28;20053;-84
2022/06/29 06:39:25;;;;;;;10.30;6.22;;;19.30;99.90;;;;;;5013555;28;20108;-84
2022/06/29 06:42:15;;;;;;;8.93;5.95;;;19.50;99.90;;;;;;5012780;28;20542;-84
2022/06/29 06:45:02;;;;;;;9.10;6.70;;;19.70;99.90;;;;;;5012607;28;20107;-84
2022/06/29 06:47:52;;;;;;;9.23;6.45;;;19.80;99.90;;;;;;5015692;28;20041;-85
2022/06/29 06:50:43;;;;;;;8.38;6.85;;;20.00;99.90;;;;;;5009458;28;20057;-85
2022/06/29 06:53:36;;;;;;;6.07;5.47;;;20.40;99.90;;;;;;5009784;28;20037;-85
2022/06/29 06:56:28;;;;;;;7.15;4.72;;;20.90;99.90;;;;;;5004578;28;20054;-86
2022/06/29 06:59:15;;;;;;;5.75;5.20;;;21.50;99.90;;;;;;5014924;28;20054;-85
2022/06/29 07:02:03;;;;;;;10.93;5.57;;;21.50;99.90;;;;;;5004076;28;20076;-87
2022/06/29 07:04:50;;;;;;;10.02;5.03;;;21.60;99.90;;;;;;5014471;28;20138;-86
2022/06/29 07:07:40;;;;;;;7.18;4.93;;;21.80;99.90;;;;;;5016412;28;20052;-85
2022/06/29 07:10:27;;;;;;;7.53;5.72;;;22.10;99.90;;;;;;5015166;28;20046;-89
2022/06/29 07:13:17;;;;;;;4.93;4.43;;;22.30;99.90;;;;;;5011896;28;20053;-86
2022/06/29 07:16:05;;;;;;;6.25;4.97;;;22.20;99.90;;;;;;5016216;28;20352;-86
2022/06/29 07:18:53;;;;;;;6.28;4.60;;;22.20;99.90;;;;;;5001961;28;20403;-88
2022/06/29 07:21:40;;;;;;;6.15;4.13;;;22.50;99.90;;;;;;5014296;28;20053;-89
2022/06/29 07:24:30;;;;;;;6.35;4.70;;;22.70;99.90;;;;;;5015867;28;20100;-90
2022/06/29 07:27:18;;;;;;;5.10;4.45;;;23.00;99.90;;;;;;5016859;28;20117;-91
2022/06/29 07:30:09;;;;;;;9.25;4.60;;;23.10;99.90;;;;;;5014477;28;20056;-91
2022/06/29 07:32:56;;;;;;;7.53;5.65;;;23.40;99.90;;;;;;4999689;28;20046;-90
2022/06/29 07:35:44;;;;;;;5.35;4.47;;;23.00;99.90;;;;;;5011548;28;20053;-88
2022/06/29 07:38:31;;;;;;;10.55;5.78;;;22.90;99.90;;;;;;5013253;28;20108;-88
2022/06/29 07:41:18;;;;;;;6.32;5.50;;;23.20;99.90;;;;;;4998347;28;20050;-89
2022/06/29 07:44:06;;;;;;;5.00;4.50;;;23.50;99.90;;;;;;5001325;28;20045;-91
2022/06/29 07:46:55;;;;;;;6.15;4.88;;;24.00;99.90;;;;;;5001270;28;20054;-89
2022/06/29 07:49:44;;;;;;;4.43;4.03;;;24.60;99.90;;;;;;5014061;28;20057;-85
2022/06/29 07:52:34;;;;;;;4.03;3.72;;;25.20;99.90;;;;;;5005116;28;20057;-87
2022/06/29 07:55:21;;;;;;;5.55;3.90;;;26.20;99.90;;;;;;5008905;28;20050;-88
2022/06/29 07:58:14;;;;;;;4.30;3.80;;;26.50;99.90;;;;;;4997426;28;20056;-88
2022/06/29 08:01:07;;;;;;;3.97;3.67;;;26.80;99.90;;;;;;5008914;28;20049;-87
2022/06/29 08:03:54;;;;;;;;;;;27.30;97.60;;;;;;5014383;28;20432;-89
2022/06/29 08:06:41;;;;;;;3.58;3.28;;;27.50;96.50;;;;;;5007911;28;19997;-89
2022/06/29 08:09:31;;;;;;;4.30;3.58;;;28.20;96.20;;;;;;5012400;28;20072;-88
2022/06/29 08:12:20;;;;;;;3.33;3.03;;;28.70;87.10;;;;;;5013812;28;20053;-87
2022/06/29 08:15:08;;;;;;;4.38;3.25;;;28.00;88.00;;;;;;5000021;28;20072;-89
2022/06/29 08:17:56;;;;;;;3.70;3.00;;;27.20;86.50;;;;;;5017301;28;20060;-87
2022/06/29 08:20:43;;;;;;;3.35;3.10;;;26.60;93.30;;;;;;5005708;28;20046;-88
2022/06/29 08:23:34;;;;;;;6.25;2.92;;;26.20;93.30;;;;;;4993201;28;20045;-87
2022/06/29 08:26:21;;;;;;;9.18;3.50;;;26.00;90.30;;;;;;5010425;28;20460;-88
2022/06/29 08:29:29;;;;;;;4.38;3.55;;;25.60;90.00;;;;;;4995586;28;20041;-88
2022/06/29 08:32:16;;;;;;;5.53;3.80;;;26.10;94.00;;;;;;5015116;28;20049;-87
2022/06/29 08:35:04;;;;;;;3.63;3.33;;;27.30;89.50;;;;;;5011077;28;20384;-90
2022/06/29 08:37:55;;;;;;;3.25;2.47;;;28.20;86.80;;;;;;5016598;28;20066;-90
2022/06/29 08:40:47;;;;;;;4.70;3.15;;;29.50;82.50;;;;;;4998923;28;20436;-90
2022/06/29 08:43:36;;;;;;;;;;;29.10;82.50;;;;;;5002199;28;20042;-87
2022/06/29 08:46:26;;;;;;;4.05;3.35;;;28.80;79.50;;;;;;5001030;28;19925;-87
2022/06/29 08:49:13;;;;;;;3.75;3.05;;;28.40;81.80;;;;;;5005626;28;20096;-88
2022/06/29 08:52:04;;;;;;;3.72;3.20;;;28.30;81.50;;;;;;5004731;28;20043;-88
2022/06/29 08:54:53;;;;;;;7.50;3.20;;;28.20;83.60;;;;;;5015824;28;20479;-89
2022/06/29 08:57:42;;;;;;;3.92;3.50;;;28.20;80.40;;;;;;5014742;28;20057;-88
2022/06/29 09:00:29;;;;;;;4.60;3.42;;;28.00;78.60;;;;;;5013623;28;20479;-87
2022/06/29 09:03:21;;;;;;;5.00;3.30;;;28.00;80.10;;;;;;5003693;28;20046;-88
2022/06/29 09:06:09;;;;;;;3.85;3.50;;;27.30;82.80;;;;;;5003793;28;20042;-91
2022/06/29 09:08:56;;;;;;;6.35;3.58;;;26.90;82.30;;;;;;5013599;28;20057;-88
2022/06/29 09:11:46;;;;;;;4.78;3.55;;;26.50;84.90;;;;;;5011774;28;20046;-88
2022/06/29 09:14:33;;;;;;;3.72;3.22;;;26.20;87.40;;;;;;5000882;28;20624;-86
2022/06/29 09:17:21;;;;;;;5.03;3.38;;;26.60;88.50;;;;;;5008648;28;20049;-88
2022/06/29 09:20:13;;;;;;;4.63;3.40;;;27.00;89.80;;;;;;4998613;28;20443;-91
2022/06/29 09:23:19;;;;;;;5.22;3.28;;;27.10;89.90;;;;;;5007848;28;20061;-89
2022/06/29 09:26:07;;;;;;;4.50;3.63;;;26.50;87.00;;;;;;4995890;28;20049;-90
2022/06/29 09:29:00;;;;;;;4.28;3.55;;;26.30;90.50;;;;;;5014439;28;20046;-90
2022/06/29 09:32:05;;;;;;;4.10;3.63;;;26.20;86.00;;;;;;5000651;28;20399;-89
2022/06/29 09:34:55;;;;;;;5.88;3.20;;;26.20;89.00;;;;;;5000609;28;20435;-88
2022/06/29 09:37:44;;;;;;;5.05;3.60;;;26.30;85.50;;;;;;5012863;28;20046;-90
2022/06/29 09:40:31;;;;;;;6.72;3.55;;;26.20;83.70;;;;;;5009911;28;20050;-87
2022/06/29 09:43:19;;;;;;;3.42;3.03;;;26.30;91.20;;;;;;5015276;28;20049;-90
2022/06/29 09:46:11;;;;;;;3.50;3.10;;;26.40;87.90;;;;;;5013225;28;20054;-89
2022/06/29 09:49:03;;;;;;;6.32;3.30;;;26.50;91.00;;;;;;5013707;28;20065;-90
2022/06/29 09:51:57;;;;;;;7.55;3.13;;;26.70;86.20;;;;;;5009396;28;20359;-90
2022/06/29 09:54:54;;;;;;;3.80;3.40;;;26.70;89.00;;;;;;5014374;28;20081;-89
2022/06/29 09:57:44;;;;;;;4.70;3.40;;;26.70;81.10;;;;;;5015415;28;20042;-90
2022/06/29 10:03:39;;;;;;;7.90;3.50;;;27.40;89.10;;;;;;5011029;28;20061;-91
2022/06/29 10:06:28;;;;;;;3.58;3.08;;;29.10;78.20;;;;;;4999613;28;20465;-91
2022/06/29 10:09:20;;;;;;;4.43;2.60;;;30.50;78.30;;;;;;5010848;28;20048;-89
2022/06/29 10:15:33;;;;;;;2.47;2.10;;;30.70;70.10;;;;;;5012819;28;20061;-86
2022/06/29 10:19:00;;;;;;;4.88;2.38;;;29.90;71.60;;;;;;5015851;28;20049;-89
2022/06/29 10:21:47;;;;;;;4.30;2.95;;;29.80;72.80;;;;;;5015933;28;20038;-87
2022/06/29 10:24:37;;;;;;;4.90;2.90;;;29.40;69.70;;;;;;5001680;28;20065;-86
2022/06/29 10:27:24;;;;;;;5.85;3.20;;;29.10;78.40;;;;;;5014302;28;20141;-86
2022/06/29 10:30:22;;;;;;;9.18;3.10;;;29.20;75.60;;;;;;5016765;28;20038;-88
2022/06/29 10:33:35;;;;;;;6.10;3.00;;;29.30;74.60;;;;;;5014923;28;20423;-90
2022/06/29 10:36:22;;;;;;;4.95;2.67;;;29.40;75.20;;;;;;5018392;28;20045;-92
2022/06/29 10:39:11;;;;;;;2.45;2.17;;;29.00;73.70;;;;;;5018138;28;20073;-88
2022/06/29 10:45:16;;;;;;;4.30;2.80;;;28.00;78.00;;;;;;5015440;28;20045;-89
2022/06/29 10:48:07;;;;;;;7.88;3.50;;;27.70;80.60;;;;;;5022139;28;20054;-90
2022/06/29 10:50:54;;;;;;;5.18;3.55;;;27.10;80.90;;;;;;5023219;28;20054;-90
2022/06/29 10:53:41;;;;;;;5.25;2.75;;;26.70;82.10;;;;;;5009008;28;20042;-91
2022/06/29 10:56:35;;;;;;;5.97;3.10;;;26.50;85.10;;;;;;5016915;28;20479;-88
2022/06/29 10:59:36;;;;;;;5.78;3.40;;;26.50;89.70;;;;;;5019114;28;20467;-90
2022/06/29 11:02:23;;;;;;;5.10;3.08;;;26.20;87.70;;;;;;5017097;28;20046;-90
2022/06/29 11:05:11;;;;;;;3.75;3.10;;;26.10;88.90;;;;;;5015326;28;20065;-89
2022/06/29 11:20:25;;;;;;;4.85;3.20;;;25.90;91.20;;;;;;5018278;28;20454;-90
2022/06/29 11:23:15;;;;;;;6.18;3.55;;;25.60;91.70;;;;;;5012632;28;20129;-90
2022/06/29 11:26:03;;;;;;;4.20;2.97;;;25.60;92.30;;;;;;5004197;28;20034;-89
2022/06/29 11:28:51;;;;;;;6.68;3.60;;;25.90;90.40;;;;;;5019978;28;20090;-91
2022/06/29 11:31:38;;;;;;;5.93;3.00;;;26.20;88.20;;;;;;5016851;28;20042;-92
2022/06/29 11:34:26;;;;;;;4.65;3.00;;;26.50;89.80;;;;;;5023283;28;20066;-92
2022/06/29 11:37:15;;;;;;;3.85;2.80;;;27.20;90.40;;;;;;5002955;28;20053;-91
2022/06/29 11:40:06;;;;;;;6.55;2.88;;;28.60;86.80;;;;;;5005952;28;20112;-89
2022/06/29 11:43:08;;;;;;;5.43;3.17;;;29.70;78.80;;;;;;5018391;28;20054;-91
2022/06/29 11:45:58;;;;;;;4.00;3.05;;;29.10;74.50;;;;;;5018714;28;20069;-90
2022/06/29 11:51:57;;;;;;;4.93;3.20;;;28.40;77.50;;;;;;5015636;28;20046;-91
2022/06/29 11:54:49;;;;;;;2.90;2.47;;;28.10;80.70;;;;;;5016583;28;20054;-91
2022/06/29 11:57:36;;;;;;;3.72;2.97;;;27.90;77.30;;;;;;5012539;28;20050;-91
2022/06/29 12:00:26;;;;;;;4.05;3.20;;;27.80;76.90;;;;;;5016818;28;20038;-91
2022/06/29 12:03:14;;;;;;;5.57;3.30;;;27.40;77.30;;;;;;5013584;28;20050;-92
2022/06/29 12:06:02;;;;;;;5.05;3.22;;;26.90;82.40;;;;;;5014127;28;20037;-92
2022/06/29 12:08:53;;;;;;;3.13;2.83;;;26.50;88.00;;;;;;5010618;28;20038;-91
2022/06/29 12:11:44;;;;;;;8.23;3.33;;;26.50;89.60;;;;;;5007582;28;20391;-91
2022/06/29 12:14:31;;;;;;;4.28;3.28;;;26.50;90.00;;;;;;5009975;28;20061;-90
2022/06/29 12:17:21;;;;;;;5.80;2.70;;;26.30;86.30;;;;;;5015947;28;20083;-90
2022/06/29 12:20:11;;;;;;;5.00;3.05;;;26.50;85.60;;;;;;5015841;28;20121;-91
2022/06/29 12:23:18;;;;;;;3.90;3.13;;;26.40;87.40;;;;;;5014953;28;20148;-89
2022/06/29 12:26:08;;;;;;;10.73;3.38;;;26.70;89.90;;;;;;5031073;28;20046;-91
2022/06/29 12:28:59;;;;;;;4.75;3.10;;;26.90;89.40;;;;;;5028646;28;20099;-89
2022/06/29 12:31:47;;;;;;;5.88;3.17;;;27.90;85.50;;;;;;5020122;28;20440;-90
2022/06/29 12:34:34;;;;;;;5.05;2.70;;;28.50;79.50;;;;;;5024403;28;20136;-90
2022/06/29 12:37:22;;;;;;;4.65;3.20;;;28.50;79.40;;;;;;5007164;28;20045;-90
2022/06/29 12:40:11;;;;;;;6.28;2.95;;;28.30;79.30;;;;;;5023777;28;20049;-89
2022/06/29 12:43:03;;;;;;;6.03;3.17;;;28.50;82.10;;;;;;5014419;28;20057;-91
2022/06/29 12:45:50;;;;;;;;;;;29.60;79.60;;;;;;5015133;28;20092;-90
2022/06/29 12:48:44;;;;;;;3.67;2.22;;;31.20;75.20;;;;;;5013390;28;19961;-90
2022/06/29 12:51:35;;;;;;;3.53;2.63;;;32.20;68.10;;;;;;5001830;28;20159;-91
2022/06/29 12:54:23;;;;;;;5.70;2.78;;;31.10;66.20;;;;;;4999568;28;20420;-88
2022/06/29 12:57:10;;;;;;;5.78;2.90;;;29.70;70.20;;;;;;5012116;28;20060;-89
2022/06/29 12:59:57;;;;;;;4.82;2.70;;;28.70;75.80;;;;;;4988806;28;20057;-89
2022/06/29 13:02:45;;;;;;;3.55;2.85;;;28.80;75.00;;;;;;5001720;28;20050;-90
2022/06/29 13:05:35;;;;;;;2.95;2.50;;;29.00;75.70;;;;;;5015866;28;20038;-90
2022/06/29 13:08:22;;;;;;;6.40;3.08;;;28.90;77.00;;;;;;5012968;28;20113;-91
2022/06/29 13:11:10;;;;;;;5.57;3.40;;;28.20;77.40;;;;;;5013272;28;20045;-87
2022/06/29 13:14:00;;;;;;;3.30;3.00;;;27.40;78.50;;;;;;5008941;28;20045;-89
2022/06/29 13:16:48;;;;;;;3.70;3.40;;;26.70;82.60;;;;;;5004570;28;20088;-91
2022/06/29 13:19:37;;;;;;;5.28;3.22;;;26.50;84.60;;;;;;4995650;28;20042;-90
2022/06/29 13:22:24;;;;;;;5.20;2.95;;;26.70;85.40;;;;;;5013400;28;20053;-91
2022/06/29 13:25:11;;;;;;;4.70;3.00;;;27.90;84.50;;;;;;5010946;28;20466;-89
2022/06/29 13:27:59;;;;;;;9.75;3.47;;;29.00;78.50;;;;;;5011877;28;20053;-91
2022/06/29 13:30:46;;;;;;;4.82;3.20;;;28.90;76.50;;;;;;4999679;28;20448;-88
2022/06/29 13:33:33;;;;;;;4.22;3.15;;;28.90;75.90;;;;;;5015218;28;20072;-92
2022/06/29 13:36:28;;;;;;;5.45;3.40;;;28.40;78.70;;;;;;5010685;28;20367;-91
2022/06/29 13:39:18;;;;;;;3.30;3.00;;;28.20;77.60;;;;;;5012547;28;20045;-90
2022/06/29 13:42:08;;;;;;;5.25;3.25;;;27.90;80.20;;;;;;5011162;28;20046;-91
2022/06/29 13:44:56;;;;;;;5.72;3.15;;;27.80;79.80;;;;;;5018449;28;20050;-90
2022/06/29 13:47:43;;;;;;;6.07;3.42;;;27.50;80.10;;;;;;5016504;28;20046;-91
2022/06/29 13:50:32;;;;;;;7.28;3.00;;;27.50;83.50;;;;;;5018980;28;20053;-89
2022/06/29 13:53:23;;;;;;;5.88;3.20;;;27.80;82.30;;;;;;5008750;28;20046;-88
2022/06/29 13:56:10;;;;;;;5.32;2.90;;;28.10;79.90;;;;;;5015062;28;20459;-89
2022/06/29 13:59:04;;;;;;;9.30;3.10;;;28.20;73.50;;;;;;5001075;28;20045;-88
2022/06/29 14:01:54;;;;;;;7.25;3.20;;;28.00;76.10;;;;;;5018730;28;20436;-91
2022/06/29 14:04:41;;;;;;;3.28;2.92;;;27.80;76.20;;;;;;5016520;28;20046;-91
2022/06/29 14:07:29;;;;;;;5.03;3.40;;;27.40;77.10;;;;;;4999432;28;20371;-89
2022/06/29 14:10:36;;;;;;;3.88;3.10;;;27.20;76.20;;;;;;5028009;28;20056;-90
2022/06/29 14:13:23;;;;;;;4.68;3.20;;;27.10;77.00;;;;;;5006365;28;20729;-89
2022/06/29 14:16:10;;;;;;;4.18;3.22;;;27.20;78.40;;;;;;5015321;28;20043;-92
2022/06/29 14:19:00;;;;;;;5.63;3.13;;;27.40;77.80;;;;;;5020170;28;20069;-91
2022/06/29 14:21:50;;;;;;;7.07;3.30;;;27.70;77.30;;;;;;5017165;28;20069;-91
2022/06/29 14:24:37;;;;;;;4.60;3.47;;;28.40;74.20;;;;;;5022171;28;20060;-91
2022/06/29 14:27:25;;;;;;;6.13;3.47;;;28.80;71.50;;;;;;5023742;28;20372;-93
2022/06/29 14:30:15;;;;;;;7.70;3.10;;;29.20;73.10;;;;;;5017382;28;20046;-92
2022/06/29 14:33:05;;;;;;;5.43;3.40;;;30.40;69.10;;;;;;5010054;28;20117;-91
2022/06/29 14:35:52;;;;;;;3.72;2.92;;;30.50;65.50;;;;;;5016513;28;20149;-91
2022/06/29 14:38:39;;;;;;;6.90;3.00;;;29.60;66.60;;;;;;5016275;28;20383;-88
2022/06/29 14:41:26;;;;;;;6.32;2.92;;;29.90;72.50;;;;;;5008096;28;20061;-88
2022/06/29 14:44:16;;;;;;;7.70;2.60;;;31.70;60.90;;;;;;5016140;28;20064;-90
2022/06/29 14:47:04;;;;;;;3.53;2.25;;;33.50;63.40;;;;;;5013717;28;20329;-90
2022/06/29 14:49:51;;;;;;;5.00;2.72;;;34.70;54.60;;;;;;5015194;28;20660;-90
2022/06/29 14:52:38;;;;;;;3.63;2.63;;;35.10;52.50;;;;;;5014346;28;20077;-91
2022/06/29 14:55:26;;;;;;;5.80;2.63;;;34.10;52.20;;;;;;5014863;28;20376;-90
2022/06/29 14:58:13;;;;;;;3.33;2.30;;;34.10;53.80;;;;;;5005042;28;20046;-89
2022/06/29 15:01:05;;;;;;;5.10;1.98;;;34.00;52.20;;;;;;5018163;28;20053;-91
2022/06/29 15:03:52;;;;;;;;;;;34.00;52.40;;;;;;5011018;28;20125;-88
2022/06/29 15:06:40;;;;;;;2.90;2.17;;;34.20;52.40;;;;;;5012179;28;19926;-88
2022/06/29 15:09:33;;;;;;;5.45;2.50;;;34.70;52.60;;;;;;5015341;28;20061;-91
2022/06/29 15:12:24;;;;;;;6.22;2.42;;;33.70;53.00;;;;;;5023972;28;20102;-90
2022/06/29 15:15:11;;;;;;;3.67;2.30;;;33.70;53.30;;;;;;5016871;28;20049;-90
2022/06/29 15:17:58;;;;;;;3.97;2.35;;;33.80;51.00;;;;;;5015940;28;20483;-90
2022/06/29 15:20:48;;;;;;;4.10;2.35;;;33.50;52.40;;;;;;5022606;28;20061;-89
2022/06/29 15:23:36;;;;;;;3.35;2.90;;;33.10;52.80;;;;;;5003301;28;20050;-91